Aérodrome :
LOGIN :

S'inscrire | Disclaimer

   EN    FR    IT 

 










Légende :    VFR   VFR Marginal   IFR   IFR Intensif   IFR Très Intensif
Visi : 
Plafond : 
>= 8 km
>= 3000ft
5 à 8 km
1000 à 3000 ft
1500m à 5 km
500 à 1000 ft
800 à 1500m
200 à 500 ft
< 800m
< 200 ft
Symboles :   Orages  Brouillard  Fortes neiges  Fortes précipitations  Vent > 20 kt
SIGMETs :   Divers  Orages  Givrage  Turbulence  Onde Orograph.  Cendres Volcan.







- Altitude de l'aérodrome : 464 ft
- Code IATA : EVX
- Voir les cartes d'approche


LFOE - Evreux

DERNIER METAR :
  • 191030Z AUTO 33005KT 290V030 9999 FEW032 09/04 Q1024

METARs EXPIRÉS :
  • 191000Z AUTO 30004KT 280V340 9999 BKN032 08/05 Q1024
  • 190930Z AUTO VRB03KT 9999 FEW032 SCT190 08/05 Q1023
  • 190900Z AUTO 30003KT 9999 FEW029 07/07 Q1023
  • 190830Z AUTO 29004KT CAVOK 06/06 Q1023
  • 190800Z AUTO 29004KT 0550 0500 R22/0800U FG NSC 05/05 Q1023

TAF TAF LFOE
Valide du 19 à 09h jusqu'au 20 à 09h UTC


190800Z 1909/2009 29004KT CAVOK
TEMPO 2000/2003 3000 BR
BECMG 2003/2006 22010KT BKN005
Pas de NOTAMs connus pour ce terrain.



MET'MAP, la Météo Aéronautique d'un coup d'oeil ! - Copyright ORBIFLY Décembre 2007 - Disclaimer

ORBIFLY MET'MAP TEAM :

Programmation & Développement : Alexandra Zaïnal
Conception & Développement : Baudouin d'Aumeries
Co-Programmation & Développement : Marc-Olivier Méhu
Soutien technique & logistique : Manuel Goepfert

Contact : metmap@orbifly.com




SOURCES & CREDITS :

   NOAA